AirNav   Everest Fuels
 
 511 users online  

8Y6 Leaders/Clear Lake Airport
Clear Lake, Minnesota, USA

GOING TO CLEAR LAKE?


FAA INFORMATION EFFECTIVE 23 MARCH 2023

Location

FAA Identifier: 8Y6
Lat/Long: 45-26-39.8760N 093-58-15.9300W
45-26.664600N 093-58.265500W
45.4444100,-93.9710917
(estimated)
Elevation: 990 ft. / 302 m (estimated)
Variation: 04E (1985)
From city: 2 miles E of CLEAR LAKE, MN
Time zone: UTC -5 (UTC -6 during Standard Time)
Zip code: 55319

Airport Operations

Airport use: Open to the public
Activation date: 04/1970
Control tower: no
ARTCC: MINNEAPOLIS CENTER
FSS: PRINCETON FLIGHT SERVICE STATION
NOTAMs facility: PNM (NOTAM-D service available)
Attendance: 0800-DUSK
Wind indicator: yes
Segmented circle: no

Airport Communications

CTAF: 122.9
WX ASOS at STC (7 nm NW): 125.075 (320-240-8781)
WX AWOS-3 at MGG (13 nm S): 128.325 (320-963-3300)
WX AWOS-3 at PNM (17 nm NE): 119.025 (763-389-0615)
WX AWOS-3PT at CFE (18 nm S): 120.45 (763-684-0762)

Nearby radio navigation aids

VOR radial/distance  VOR name  Freq  Var
STCr147/7.3ST CLOUD VOR/DME112.1003E
DWNr037/29.6DARWIN VORTAC109.0007E
GEPr299/31.0GOPHER VORTAC117.3006E

 
NDB name  Hdg/Dist  Freq  Var  ID
HUSSK180/2.134203EST ... -

Airport Services

Fuel available: 100LL
100LL:AFT HOURS CTC AMGR.
Parking: hangars and tiedowns
Airframe service: MAJOR
Powerplant service: MAJOR
Bottled oxygen: NONE
Bulk oxygen: NONE

Runway Information

Runway 18/36

Dimensions: 3000 x 150 ft. / 914 x 46 m
Surface: asphalt/turf, in poor condition
SFC UNEVEN & ROUGH WITH LOOSE GRVL.
SVRL BARE SPOTS ALG THE CNTR OF THE RWY.
Runway edge markings: RY 18/36 AND DISPLACED THRESHOLDS MKD WITH YELLOW CONES.
RUNWAY 18  RUNWAY 36
Latitude: 45-26.894833N45-26.401167N
Longitude: 093-58.265500W093-58.265500W
Elevation: 985.0 ft.985.0 ft.
Traffic pattern: leftleft
Runway end identifier lights: nono
Obstructions: 7 ft. crops, 35 ft. from runway, 5:1 slope to clear
RWY 18: TREES +50, 750 FM END, 135 R, 20:1 TO DISPL THLD
26 ft. trees, 241 ft. from runway, 80 ft. right of centerline, 9:1 slope to clear
+20 FT TREES, 463 FT DIST, 159 FT L, 16:1 TO DTHR.

Airport Ownership and Management from official FAA records

Ownership: Privately-owned
Owner: BOB LEADERS
8948 95TH AVE
CLEAR LAKE, MN 55319-9669
Phone 612-743-2294
Manager: BOB LEADERS
8948 95TH AVE
CLEAR LAKE, MN 55319-9669
Phone 612-743-2294

Airport Operational Statistics

Aircraft based on the field: 57
Single engine airplanes: 50
Multi engine airplanes: 5
Ultralights: 2
    
Aircraft operations: avg 134/week *
71% local general aviation
29% transient general aviation
<1% military
* for 12-month period ending 31 July 2018

Additional Remarks

FOR CD CTC MINNEAPOLIS ARTCC AT 651-463-5588.

Instrument Procedures

There are no published instrument procedures at 8Y6.

Some nearby airports with instrument procedures:

KSTC - St Cloud Regional Airport (7 nm NW)
KMGG - Maple Lake Municipal Airport-Bill Mavencamp Sr Field (13 nm S)
KPNM - Princeton Municipal Airport (17 nm NE)
KCFE - Buffalo Municipal Airport (18 nm S)
KCBG - Cambridge Municipal Airport (30 nm E)
 
Loc | Ops | Rwys | IFR | FBO | Links
Com | Nav | Svcs | Stats | Notes
Area around 8Y6 (Leaders/Clear Lake Airport)
 
Road maps at: MapQuest Bing Google
 
Aerial photo
No photo
 
Sectional chart

 
Airport distance calculator
Flying to Leaders/Clear Lake Airport? Find the distance to fly.

From to 8Y6

Sunrise and sunset
Times for 31-Mar-2023
 Local
(UTC-5)
 Zulu
(UTC)
Morning civil twilight06:2911:29
Sunrise06:5911:59
Sunset19:4100:41
Evening civil twilight20:1101:11

Current date and time
Zulu (UTC)  31-Mar-2023 10:51:49
Local (UTC-5)  31-Mar-2023 05:51:49
 
METAR
KSTC 
7nm NW 
310953Z AUTO 06007G17KT 7SM OVC006 01/M01 A2961 RMK AO2 SLP045 T00061006 $
KMGG 
13nm S 
311035Z AUTO 05006KT 10SM OVC007 01/00 A2962 RMK AO2 LTG DSNT E T00101001
KPNM 
17nm E 
311035Z AUTO 05006KT 4SM BR OVC006 01/M01 A2964 RMK AO2 TSNO
KCFE 
18nm S 
311035Z AUTO 06008G15KT 10SM OVC008 01/01 A2961 RMK AO2 LTG DSNT SE
TAF
KSTC 
7nm NW 
310520Z 3106/0106 06013G20KT 5SM -FZRA BR OVC008 FM310900 05014G24KT 5SM -SHRA BR OVC007 FM311900 04021G37KT 5SM -PL BR OVC007 PROB30 3119/3123 -TSPL OVC007CB FM010000 03023G40KT 1SM -SN BR OVC006
NOTAMs
Click for the latest NOTAMs
NOTAMs are issued by the DoD/FAA and will open in a separate window not controlled by AirNav.

 

 
 

FBO, Fuel Providers, and Aircraft Ground Support

  
 Business Name 
 
 Contact 
 
 Services / Description 
 
Fuel Prices
 
Comments
  
Leaders St. Cloud Flying Service 320-743-2294
no information available

If you are affiliated with Leaders St. Cloud Flying Service and would like to show here your services, contact info, web link, logo, and more, click here
100LL
FS $6.00 
 Updated 22-Mar-2023
 
   write
FS=Full service
Update Fuel Prices
 

Would you like to see your business listed on this page?

 If your business provides an interesting product or service to pilots, flight crews, aircraft, or users of the Leaders/Clear Lake Airport, you should consider listing it here.  To start the listing process, click on the button below
 
Add a business
 

Other Pages about Leaders/Clear Lake Airport

Update a link
 
Copyright © AirNav, LLC. All rights reserved. Privacy Policy  Contact